Valley Station, Kentucky
Current Conditions -  °F | °C
As of 12:56 AM on Saturday 29 Nov 2014 (Local Time) from KSDF Reporting Station
Broken Clouds Broken Clouds  
Wind Chill: 31°   Ceiling: 25000
Heat Index: 36°   Visibility: 10mi
Dew Point: 22°   Wind: 6mph
Humidity: 57%   Direction: 140°SE
Pressure: 30.06"   Gusts: NA
Location:  38.0866°N, 85.8492°W
Report Text: KSDF 290556Z 14005KT 10SM BKN250 02/M06 A3006 RMK AO2 SLP184 T00221056 10033 20011 56013
Loading
Personal Weather Stations






























Interactive Weather Map New forecast layout! Learn more

10-Day Weather Forecast

Advertisements
Track Severe Weather on mobile